sensor_id;sensor_type;location;lat;lon;timestamp;P1;durP1;ratioP1;P2;durP2;ratioP2
33270;SDS011;53180;51.344;6.152;2022-10-04T00:02:19;2.63;;;1.90;;
33270;SDS011;53180;51.344;6.152;2022-10-04T00:04:54;3.15;;;1.77;;
33270;SDS011;53180;51.344;6.152;2022-10-04T00:07:30;3.10;;;2.10;;
33270;SDS011;53180;51.344;6.152;2022-10-04T00:10:03;3.13;;;1.98;;
33270;SDS011;53180;51.344;6.152;2022-10-04T00:12:45;4.60;;;2.20;;
33270;SDS011;53180;51.344;6.152;2022-10-04T00:15:18;3.38;;;1.92;;
33270;SDS011;53180;51.344;6.152;2022-10-04T00:18:06;4.03;;;2.03;;
33270;SDS011;53180;51.344;6.152;2022-10-04T00:20:56;2.67;;;1.90;;
33270;SDS011;53180;51.344;6.152;2022-10-04T00:29:38;2.22;;;1.83;;
33270;SDS011;53180;51.344;6.152;2022-10-04T00:32:22;2.67;;;1.58;;
33270;SDS011;53180;51.344;6.152;2022-10-04T00:34:55;3.97;;;2.13;;
33270;SDS011;53180;51.344;6.152;2022-10-04T00:37:25;6.85;;;2.15;;
33270;SDS011;53180;51.344;6.152;2022-10-04T00:39:58;2.55;;;2.03;;
33270;SDS011;53180;51.344;6.152;2022-10-04T00:42:36;2.33;;;2.13;;
33270;SDS011;53180;51.344;6.152;2022-10-04T00:45:19;3.35;;;2.08;;
33270;SDS011;53180;51.344;6.152;2022-10-04T00:48:08;3.05;;;1.90;;
33270;SDS011;53180;51.344;6.152;2022-10-04T00:51:03;1.80;;;1.63;;
33270;SDS011;53180;51.344;6.152;2022-10-04T00:53:40;3.58;;;2.33;;
33270;SDS011;53180;51.344;6.152;2022-10-04T00:56:20;2.30;;;1.70;;
33270;SDS011;53180;51.344;6.152;2022-10-04T00:59:06;3.05;;;1.98;;
33270;SDS011;53180;51.344;6.152;2022-10-04T01:01:48;4.35;;;1.80;;
33270;SDS011;53180;51.344;6.152;2022-10-04T01:04:25;3.40;;;2.10;;
33270;SDS011;53180;51.344;6.152;2022-10-04T01:07:02;6.53;;;2.20;;
33270;SDS011;53180;51.344;6.152;2022-10-04T01:09:33;2.83;;;2.17;;
33270;SDS011;53180;51.344;6.152;2022-10-04T01:12:11;2.97;;;2.00;;
33270;SDS011;53180;51.344;6.152;2022-10-04T01:15:03;2.58;;;2.00;;
33270;SDS011;53180;51.344;6.152;2022-10-04T01:17:35;10.05;;;1.40;;
33270;SDS011;53180;51.344;6.152;2022-10-04T01:20:12;2.35;;;1.70;;
33270;SDS011;53180;51.344;6.152;2022-10-04T01:23:01;4.05;;;1.92;;
33270;SDS011;53180;51.344;6.152;2022-10-04T01:25:43;3.92;;;2.47;;
33270;SDS011;53180;51.344;6.152;2022-10-04T01:28:14;3.08;;;2.05;;
33270;SDS011;53180;51.344;6.152;2022-10-04T01:30:43;2.08;;;1.80;;
33270;SDS011;53180;51.344;6.152;2022-10-04T01:33:11;3.50;;;1.85;;
33270;SDS011;53180;51.344;6.152;2022-10-04T01:35:40;1.80;;;1.65;;
33270;SDS011;53180;51.344;6.152;2022-10-04T01:38:10;3.67;;;2.05;;
33270;SDS011;53180;51.344;6.152;2022-10-04T01:40:40;4.03;;;1.83;;
33270;SDS011;53180;51.344;6.152;2022-10-04T01:43:14;2.30;;;1.75;;
33270;SDS011;53180;51.344;6.152;2022-10-04T01:45:49;6.13;;;2.00;;
33270;SDS011;53180;51.344;6.152;2022-10-04T01:48:26;2.50;;;1.77;;
33270;SDS011;53180;51.344;6.152;2022-10-04T01:51:00;3.25;;;2.10;;
33270;SDS011;53180;51.344;6.152;2022-10-04T01:53:38;2.47;;;1.70;;
33270;SDS011;53180;51.344;6.152;2022-10-04T01:56:13;2.08;;;1.67;;
33270;SDS011;53180;51.344;6.152;2022-10-04T01:58:46;3.75;;;2.20;;
33270;SDS011;53180;51.344;6.152;2022-10-04T02:01:18;9.98;;;2.10;;
33270;SDS011;53180;51.344;6.152;2022-10-04T02:03:53;2.15;;;1.90;;
33270;SDS011;53180;51.344;6.152;2022-10-04T02:06:26;2.92;;;2.03;;
33270;SDS011;53180;51.344;6.152;2022-10-04T02:13:57;4.22;;;2.20;;
33270;SDS011;53180;51.344;6.152;2022-10-04T02:16:26;4.47;;;2.42;;
33270;SDS011;53180;51.344;6.152;2022-10-04T02:18:55;4.07;;;2.35;;
33270;SDS011;53180;51.344;6.152;2022-10-04T02:21:24;8.73;;;2.40;;
33270;SDS011;53180;51.344;6.152;2022-10-04T02:23:52;3.63;;;2.17;;
33270;SDS011;53180;51.344;6.152;2022-10-04T02:26:22;3.22;;;2.13;;
33270;SDS011;53180;51.344;6.152;2022-10-04T02:28:50;3.17;;;2.38;;
33270;SDS011;53180;51.344;6.152;2022-10-04T02:31:19;3.97;;;2.50;;
33270;SDS011;53180;51.344;6.152;2022-10-04T02:34:07;2.00;;;1.55;;
33270;SDS011;53180;51.344;6.152;2022-10-04T02:36:35;10.50;;;2.38;;
33270;SDS011;53180;51.344;6.152;2022-10-04T02:39:06;2.33;;;1.90;;
33270;SDS011;53180;51.344;6.152;2022-10-04T02:41:42;2.95;;;2.05;;
33270;SDS011;53180;51.344;6.152;2022-10-04T02:44:16;3.00;;;2.08;;
33270;SDS011;53180;51.344;6.152;2022-10-04T02:46:49;3.60;;;2.22;;
33270;SDS011;53180;51.344;6.152;2022-10-04T02:49:26;3.97;;;1.98;;
33270;SDS011;53180;51.344;6.152;2022-10-04T02:51:59;5.97;;;2.05;;
33270;SDS011;53180;51.344;6.152;2022-10-04T02:54:34;4.28;;;2.13;;
33270;SDS011;53180;51.344;6.152;2022-10-04T02:57:13;3.25;;;2.15;;
33270;SDS011;53180;51.344;6.152;2022-10-04T02:59:43;2.72;;;1.85;;
33270;SDS011;53180;51.344;6.152;2022-10-04T03:02:22;2.67;;;2.17;;
33270;SDS011;53180;51.344;6.152;2022-10-04T03:04:57;2.45;;;1.60;;
33270;SDS011;53180;51.344;6.152;2022-10-04T03:07:33;3.60;;;1.90;;
33270;SDS011;53180;51.344;6.152;2022-10-04T03:10:04;8.07;;;1.88;;
33270;SDS011;53180;51.344;6.152;2022-10-04T03:12:38;1.98;;;1.70;;
33270;SDS011;53180;51.344;6.152;2022-10-04T03:15:08;5.85;;;2.30;;
33270;SDS011;53180;51.344;6.152;2022-10-04T03:17:38;2.33;;;1.80;;
33270;SDS011;53180;51.344;6.152;2022-10-04T03:20:08;3.28;;;1.95;;
33270;SDS011;53180;51.344;6.152;2022-10-04T03:22:42;6.82;;;2.28;;
33270;SDS011;53180;51.344;6.152;2022-10-04T03:25:13;3.03;;;2.08;;
33270;SDS011;53180;51.344;6.152;2022-10-04T03:27:47;2.97;;;1.88;;
33270;SDS011;53180;51.344;6.152;2022-10-04T03:30:17;6.63;;;2.00;;
33270;SDS011;53180;51.344;6.152;2022-10-04T03:32:46;3.05;;;2.08;;
33270;SDS011;53180;51.344;6.152;2022-10-04T03:35:16;2.78;;;2.10;;
33270;SDS011;53180;51.344;6.152;2022-10-04T03:37:54;2.90;;;1.83;;
33270;SDS011;53180;51.344;6.152;2022-10-04T03:40:23;3.25;;;2.30;;
33270;SDS011;53180;51.344;6.152;2022-10-04T03:42:58;2.90;;;1.80;;
33270;SDS011;53180;51.344;6.152;2022-10-04T03:45:29;2.78;;;2.05;;
33270;SDS011;53180;51.344;6.152;2022-10-04T03:48:02;2.90;;;1.98;;
33270;SDS011;53180;51.344;6.152;2022-10-04T03:50:34;3.47;;;1.90;;
33270;SDS011;53180;51.344;6.152;2022-10-04T03:53:08;2.92;;;2.00;;
33270;SDS011;53180;51.344;6.152;2022-10-04T03:55:45;2.72;;;1.98;;
33270;SDS011;53180;51.344;6.152;2022-10-04T03:58:15;4.35;;;1.75;;
33270;SDS011;53180;51.344;6.152;2022-10-04T04:00:50;3.55;;;1.90;;
33270;SDS011;53180;51.344;6.152;2022-10-04T04:03:32;6.75;;;1.80;;
33270;SDS011;53180;51.344;6.152;2022-10-04T04:06:13;4.53;;;1.95;;
33270;SDS011;53180;51.344;6.152;2022-10-04T04:08:44;3.75;;;2.05;;
33270;SDS011;53180;51.344;6.152;2022-10-04T04:11:17;5.68;;;2.20;;
33270;SDS011;53180;51.344;6.152;2022-10-04T04:13:53;4.65;;;2.05;;
33270;SDS011;53180;51.344;6.152;2022-10-04T04:16:30;4.05;;;2.03;;
33270;SDS011;53180;51.344;6.152;2022-10-04T04:19:00;3.50;;;2.13;;
33270;SDS011;53180;51.344;6.152;2022-10-04T04:21:32;6.70;;;2.03;;
33270;SDS011;53180;51.344;6.152;2022-10-04T04:24:01;2.40;;;1.75;;
33270;SDS011;53180;51.344;6.152;2022-10-04T04:26:35;9.57;;;2.10;;
33270;SDS011;53180;51.344;6.152;2022-10-04T04:29:10;4.25;;;2.20;;
33270;SDS011;53180;51.344;6.152;2022-10-04T04:31:46;3.00;;;1.95;;
33270;SDS011;53180;51.344;6.152;2022-10-04T04:34:20;3.85;;;2.10;;
33270;SDS011;53180;51.344;6.152;2022-10-04T04:36:55;3.15;;;1.98;;
33270;SDS011;53180;51.344;6.152;2022-10-04T04:39:26;7.80;;;2.00;;
33270;SDS011;53180;51.344;6.152;2022-10-04T04:42:10;3.03;;;2.30;;
33270;SDS011;53180;51.344;6.152;2022-10-04T04:44:46;5.75;;;1.90;;
33270;SDS011;53180;51.344;6.152;2022-10-04T04:47:27;3.40;;;2.20;;
33270;SDS011;53180;51.344;6.152;2022-10-04T04:50:02;3.05;;;2.05;;
33270;SDS011;53180;51.344;6.152;2022-10-04T04:52:34;8.38;;;2.20;;
33270;SDS011;53180;51.344;6.152;2022-10-04T04:55:04;3.80;;;2.47;;
33270;SDS011;53180;51.344;6.152;2022-10-04T04:57:40;2.30;;;2.10;;
33270;SDS011;53180;51.344;6.152;2022-10-04T05:00:15;2.95;;;2.05;;
33270;SDS011;53180;51.344;6.152;2022-10-04T05:02:52;5.22;;;2.22;;
33270;SDS011;53180;51.344;6.152;2022-10-04T05:05:24;9.75;;;3.97;;
33270;SDS011;53180;51.344;6.152;2022-10-04T05:08:03;4.45;;;2.20;;
33270;SDS011;53180;51.344;6.152;2022-10-04T05:10:41;3.75;;;2.08;;
33270;SDS011;53180;51.344;6.152;2022-10-04T05:13:13;2.08;;;1.88;;
33270;SDS011;53180;51.344;6.152;2022-10-04T05:15:46;4.38;;;2.33;;
33270;SDS011;53180;51.344;6.152;2022-10-04T05:18:25;4.85;;;2.05;;
33270;SDS011;53180;51.344;6.152;2022-10-04T05:20:58;6.57;;;2.22;;
33270;SDS011;53180;51.344;6.152;2022-10-04T05:23:32;4.18;;;2.05;;
33270;SDS011;53180;51.344;6.152;2022-10-04T05:26:02;2.88;;;1.88;;
33270;SDS011;53180;51.344;6.152;2022-10-04T05:28:32;3.10;;;1.90;;
33270;SDS011;53180;51.344;6.152;2022-10-04T05:31:06;4.78;;;2.47;;
33270;SDS011;53180;51.344;6.152;2022-10-04T05:33:58;3.78;;;2.28;;
33270;SDS011;53180;51.344;6.152;2022-10-04T05:36:33;5.15;;;2.78;;
33270;SDS011;53180;51.344;6.152;2022-10-04T05:39:24;3.15;;;2.33;;
33270;SDS011;53180;51.344;6.152;2022-10-04T05:42:00;3.67;;;2.25;;
33270;SDS011;53180;51.344;6.152;2022-10-04T05:44:43;13.32;;;2.42;;
33270;SDS011;53180;51.344;6.152;2022-10-04T05:47:18;2.35;;;2.15;;
33270;SDS011;53180;51.344;6.152;2022-10-04T05:49:50;6.35;;;2.13;;
33270;SDS011;53180;51.344;6.152;2022-10-04T05:52:26;2.45;;;2.00;;
33270;SDS011;53180;51.344;6.152;2022-10-04T05:55:20;4.10;;;1.90;;
33270;SDS011;53180;51.344;6.152;2022-10-04T06:01:04;2.75;;;2.05;;
33270;SDS011;53180;51.344;6.152;2022-10-04T06:03:54;4.82;;;2.13;;
33270;SDS011;53180;51.344;6.152;2022-10-04T06:06:58;3.75;;;1.88;;
33270;SDS011;53180;51.344;6.152;2022-10-04T06:09:35;3.13;;;1.98;;
33270;SDS011;53180;51.344;6.152;2022-10-04T06:12:19;3.35;;;1.98;;
33270;SDS011;53180;51.344;6.152;2022-10-04T06:15:06;2.78;;;1.90;;
33270;SDS011;53180;51.344;6.152;2022-10-04T06:17:55;3.70;;;2.25;;
33270;SDS011;53180;51.344;6.152;2022-10-04T06:20:54;2.58;;;1.98;;
33270;SDS011;53180;51.344;6.152;2022-10-04T06:23:50;4.22;;;2.42;;
33270;SDS011;53180;51.344;6.152;2022-10-04T06:26:24;4.60;;;2.05;;
33270;SDS011;53180;51.344;6.152;2022-10-04T06:29:00;2.22;;;1.95;;
33270;SDS011;53180;51.344;6.152;2022-10-04T06:41:38;4.35;;;2.20;;
33270;SDS011;53180;51.344;6.152;2022-10-04T06:44:26;3.85;;;2.22;;
33270;SDS011;53180;51.344;6.152;2022-10-04T06:47:16;3.20;;;2.45;;
33270;SDS011;53180;51.344;6.152;2022-10-04T06:50:01;2.80;;;2.20;;
33270;SDS011;53180;51.344;6.152;2022-10-04T06:52:48;2.55;;;1.98;;
33270;SDS011;53180;51.344;6.152;2022-10-04T07:01:54;4.40;;;2.55;;
33270;SDS011;53180;51.344;6.152;2022-10-04T07:04:28;3.38;;;2.42;;
33270;SDS011;53180;51.344;6.152;2022-10-04T07:07:24;5.07;;;2.28;;
33270;SDS011;53180;51.344;6.152;2022-10-04T07:10:08;8.68;;;2.35;;
33270;SDS011;53180;51.344;6.152;2022-10-04T07:12:55;4.50;;;2.20;;
33270;SDS011;53180;51.344;6.152;2022-10-04T07:15:41;4.75;;;2.10;;
33270;SDS011;53180;51.344;6.152;2022-10-04T07:18:17;3.45;;;2.25;;
33270;SDS011;53180;51.344;6.152;2022-10-04T07:20:57;3.17;;;2.08;;
33270;SDS011;53180;51.344;6.152;2022-10-04T07:23:31;4.18;;;2.40;;
33270;SDS011;53180;51.344;6.152;2022-10-04T07:26:06;4.90;;;2.47;;
33270;SDS011;53180;51.344;6.152;2022-10-04T07:28:50;2.85;;;2.00;;
33270;SDS011;53180;51.344;6.152;2022-10-04T07:31:38;4.60;;;2.17;;
33270;SDS011;53180;51.344;6.152;2022-10-04T07:34:09;4.00;;;2.45;;
33270;SDS011;53180;51.344;6.152;2022-10-04T07:36:44;2.70;;;1.90;;
33270;SDS011;53180;51.344;6.152;2022-10-04T07:39:17;2.50;;;2.10;;
33270;SDS011;53180;51.344;6.152;2022-10-04T07:41:51;4.68;;;2.45;;
33270;SDS011;53180;51.344;6.152;2022-10-04T07:44:25;6.68;;;2.30;;
33270;SDS011;53180;51.344;6.152;2022-10-04T07:47:02;3.88;;;2.38;;
33270;SDS011;53180;51.344;6.152;2022-10-04T07:49:41;3.85;;;2.22;;
33270;SDS011;53180;51.344;6.152;2022-10-04T07:52:25;4.55;;;2.50;;
33270;SDS011;53180;51.344;6.152;2022-10-04T07:55:21;5.93;;;3.17;;
33270;SDS011;53180;51.344;6.152;2022-10-04T07:58:04;3.50;;;2.13;;
33270;SDS011;53180;51.344;6.152;2022-10-04T08:00:51;3.90;;;2.33;;
33270;SDS011;53180;51.344;6.152;2022-10-04T08:03:28;4.70;;;2.60;;
33270;SDS011;53180;51.344;6.152;2022-10-04T08:06:32;3.03;;;2.30;;
33270;SDS011;53180;51.344;6.152;2022-10-04T08:09:13;3.72;;;2.30;;
33270;SDS011;53180;51.344;6.152;2022-10-04T08:11:53;2.97;;;2.20;;
33270;SDS011;53180;51.344;6.152;2022-10-04T08:14:34;5.75;;;2.80;;
33270;SDS011;53180;51.344;6.152;2022-10-04T08:17:21;3.65;;;2.33;;
33270;SDS011;53180;51.344;6.152;2022-10-04T08:20:20;4.22;;;2.42;;
33270;SDS011;53180;51.344;6.152;2022-10-04T08:23:02;2.88;;;2.10;;
33270;SDS011;53180;51.344;6.152;2022-10-04T08:25:49;9.27;;;1.90;;
33270;SDS011;53180;51.344;6.152;2022-10-04T08:28:28;5.00;;;2.10;;
33270;SDS011;53180;51.344;6.152;2022-10-04T08:31:27;2.88;;;1.90;;
33270;SDS011;53180;51.344;6.152;2022-10-04T08:34:14;3.42;;;2.10;;
33270;SDS011;53180;51.344;6.152;2022-10-04T08:37:00;3.85;;;1.90;;
33270;SDS011;53180;51.344;6.152;2022-10-04T08:39:48;3.92;;;1.67;;
33270;SDS011;53180;51.344;6.152;2022-10-04T08:42:34;3.42;;;2.10;;
33270;SDS011;53180;51.344;6.152;2022-10-04T08:45:43;2.80;;;1.63;;
33270;SDS011;53180;51.344;6.152;2022-10-04T08:48:55;1.38;;;1.25;;
33270;SDS011;53180;51.344;6.152;2022-10-04T08:55:19;5.65;;;1.80;;
33270;SDS011;53180;51.344;6.152;2022-10-04T08:58:20;2.83;;;1.60;;
33270;SDS011;53180;51.344;6.152;2022-10-04T09:01:14;5.38;;;1.50;;
33270;SDS011;53180;51.344;6.152;2022-10-04T09:10:56;3.30;;;1.65;;
33270;SDS011;53180;51.344;6.152;2022-10-04T09:13:55;2.20;;;1.27;;
33270;SDS011;53180;51.344;6.152;2022-10-04T09:16:44;2.65;;;1.50;;
33270;SDS011;53180;51.344;6.152;2022-10-04T09:19:20;3.90;;;1.80;;
33270;SDS011;53180;51.344;6.152;2022-10-04T09:22:04;1.65;;;1.30;;
33270;SDS011;53180;51.344;6.152;2022-10-04T09:25:02;3.42;;;1.63;;
33270;SDS011;53180;51.344;6.152;2022-10-04T09:27:57;2.92;;;1.42;;
33270;SDS011;53180;51.344;6.152;2022-10-04T09:30:52;2.67;;;1.52;;
33270;SDS011;53180;51.344;6.152;2022-10-04T09:33:51;2.20;;;1.40;;
33270;SDS011;53180;51.344;6.152;2022-10-04T09:46:05;3.08;;;1.63;;
33270;SDS011;53180;51.344;6.152;2022-10-04T09:48:49;3.75;;;1.60;;
33270;SDS011;53180;51.344;6.152;2022-10-04T09:51:35;2.85;;;1.45;;
33270;SDS011;53180;51.344;6.152;2022-10-04T09:57:46;2.50;;;1.58;;
33270;SDS011;53180;51.344;6.152;2022-10-04T10:00:31;3.70;;;1.60;;
33270;SDS011;53180;51.344;6.152;2022-10-04T10:03:16;7.47;;;2.05;;
33270;SDS011;53180;51.344;6.152;2022-10-04T10:06:33;3.83;;;1.85;;
33270;SDS011;53180;51.344;6.152;2022-10-04T10:09:27;2.75;;;1.58;;
33270;SDS011;53180;51.344;6.152;2022-10-04T10:12:26;3.70;;;1.77;;
33270;SDS011;53180;51.344;6.152;2022-10-04T10:15:30;7.70;;;1.88;;
33270;SDS011;53180;51.344;6.152;2022-10-04T10:18:12;3.42;;;1.90;;
33270;SDS011;53180;51.344;6.152;2022-10-04T10:20:57;2.85;;;1.75;;
33270;SDS011;53180;51.344;6.152;2022-10-04T10:23:55;2.15;;;1.50;;
33270;SDS011;53180;51.344;6.152;2022-10-04T10:26:57;3.38;;;1.42;;
33270;SDS011;53180;51.344;6.152;2022-10-04T10:29:39;2.90;;;1.60;;
33270;SDS011;53180;51.344;6.152;2022-10-04T10:32:37;13.90;;;1.73;;
33270;SDS011;53180;51.344;6.152;2022-10-04T10:38:22;4.20;;;1.50;;
33270;SDS011;53180;51.344;6.152;2022-10-04T10:41:23;3.17;;;1.60;;
33270;SDS011;53180;51.344;6.152;2022-10-04T10:44:29;4.00;;;1.90;;
33270;SDS011;53180;51.344;6.152;2022-10-04T10:47:18;4.47;;;1.67;;
33270;SDS011;53180;51.344;6.152;2022-10-04T11:05:53;3.78;;;1.50;;
33270;SDS011;53180;51.344;6.152;2022-10-04T11:12:06;3.17;;;1.33;;
33270;SDS011;53180;51.344;6.152;2022-10-04T11:25:11;8.30;;;1.52;;
33270;SDS011;53180;51.344;6.152;2022-10-04T11:27:57;5.22;;;1.30;;
33270;SDS011;53180;51.344;6.152;2022-10-04T11:30:35;2.65;;;1.35;;
33270;SDS011;53180;51.344;6.152;2022-10-04T11:37:04;2.28;;;1.05;;
33270;SDS011;53180;51.344;6.152;2022-10-04T11:39:47;3.55;;;1.23;;
33270;SDS011;53180;51.344;6.152;2022-10-04T11:42:48;2.63;;;1.20;;
33270;SDS011;53180;51.344;6.152;2022-10-04T11:45:40;2.53;;;1.30;;
33270;SDS011;53180;51.344;6.152;2022-10-04T11:48:26;1.42;;;0.93;;
33270;SDS011;53180;51.344;6.152;2022-10-04T11:51:24;3.33;;;1.15;;
33270;SDS011;53180;51.344;6.152;2022-10-04T11:54:48;1.98;;;1.15;;
33270;SDS011;53180;51.344;6.152;2022-10-04T11:57:40;3.58;;;1.75;;
33270;SDS011;53180;51.344;6.152;2022-10-04T12:00:17;4.13;;;1.25;;
33270;SDS011;53180;51.344;6.152;2022-10-04T12:06:07;2.83;;;1.50;;
33270;SDS011;53180;51.344;6.152;2022-10-04T12:09:03;4.25;;;1.45;;
33270;SDS011;53180;51.344;6.152;2022-10-04T12:11:46;7.03;;;1.38;;
33270;SDS011;53180;51.344;6.152;2022-10-04T12:15:03;2.80;;;1.50;;
33270;SDS011;53180;51.344;6.152;2022-10-04T12:18:16;4.05;;;1.40;;
33270;SDS011;53180;51.344;6.152;2022-10-04T12:21:28;2.90;;;0.95;;
33270;SDS011;53180;51.344;6.152;2022-10-04T12:24:23;4.40;;;1.17;;
33270;SDS011;53180;51.344;6.152;2022-10-04T12:27:26;2.25;;;1.20;;
33270;SDS011;53180;51.344;6.152;2022-10-04T12:30:30;1.23;;;0.80;;
33270;SDS011;53180;51.344;6.152;2022-10-04T12:33:19;1.08;;;0.80;;
33270;SDS011;53180;51.344;6.152;2022-10-04T12:35:58;1.52;;;0.90;;
33270;SDS011;53180;51.344;6.152;2022-10-04T12:38:43;2.30;;;1.17;;
33270;SDS011;53180;51.344;6.152;2022-10-04T12:41:28;2.30;;;0.98;;
33270;SDS011;53180;51.344;6.152;2022-10-04T12:44:11;3.05;;;1.27;;
33270;SDS011;53180;51.344;6.152;2022-10-04T12:46:53;1.80;;;0.98;;
33270;SDS011;53180;51.344;6.152;2022-10-04T12:49:37;3.92;;;1.23;;
33270;SDS011;53180;51.344;6.152;2022-10-04T12:52:15;2.65;;;1.20;;
33270;SDS011;53180;51.344;6.152;2022-10-04T12:54:49;2.33;;;1.15;;
33270;SDS011;53180;51.344;6.152;2022-10-04T12:57:26;1.67;;;1.00;;
33270;SDS011;53180;51.344;6.152;2022-10-04T13:00:12;3.28;;;1.30;;
33270;SDS011;53180;51.344;6.152;2022-10-04T13:02:52;3.33;;;1.10;;
33270;SDS011;53180;51.344;6.152;2022-10-04T13:05:48;1.77;;;1.02;;
33270;SDS011;53180;51.344;6.152;2022-10-04T13:08:31;2.35;;;1.20;;
33270;SDS011;53180;51.344;6.152;2022-10-04T13:17:12;4.47;;;1.33;;
33270;SDS011;53180;51.344;6.152;2022-10-04T13:23:19;1.20;;;0.80;;
33270;SDS011;53180;51.344;6.152;2022-10-04T13:26:04;8.00;;;1.20;;
33270;SDS011;53180;51.344;6.152;2022-10-04T13:29:05;1.48;;;0.75;;
33270;SDS011;53180;51.344;6.152;2022-10-04T13:31:46;7.35;;;0.80;;
33270;SDS011;53180;51.344;6.152;2022-10-04T13:34:23;3.35;;;1.08;;
33270;SDS011;53180;51.344;6.152;2022-10-04T13:43:03;5.80;;;1.58;;
33270;SDS011;53180;51.344;6.152;2022-10-04T13:46:04;2.90;;;1.08;;
33270;SDS011;53180;51.344;6.152;2022-10-04T13:48:53;1.50;;;0.80;;
33270;SDS011;53180;51.344;6.152;2022-10-04T13:51:42;3.65;;;1.25;;
33270;SDS011;53180;51.344;6.152;2022-10-04T13:54:41;1.23;;;0.80;;
33270;SDS011;53180;51.344;6.152;2022-10-04T13:57:38;2.05;;;0.90;;
33270;SDS011;53180;51.344;6.152;2022-10-04T14:00:17;2.40;;;1.05;;
33270;SDS011;53180;51.344;6.152;2022-10-04T14:03:09;1.50;;;0.98;;
33270;SDS011;53180;51.344;6.152;2022-10-04T14:12:04;0.93;;;0.68;;
33270;SDS011;53180;51.344;6.152;2022-10-04T14:15:19;3.00;;;0.93;;
33270;SDS011;53180;51.344;6.152;2022-10-04T14:18:31;1.42;;;0.93;;
33270;SDS011;53180;51.344;6.152;2022-10-04T14:25:18;4.55;;;1.15;;
33270;SDS011;53180;51.344;6.152;2022-10-04T14:31:28;1.55;;;0.90;;
33270;SDS011;53180;51.344;6.152;2022-10-04T14:34:23;1.40;;;0.80;;
33270;SDS011;53180;51.344;6.152;2022-10-04T14:37:27;1.95;;;0.85;;
33270;SDS011;53180;51.344;6.152;2022-10-04T14:41:09;1.27;;;0.82;;
33270;SDS011;53180;51.344;6.152;2022-10-04T14:44:10;0.88;;;0.75;;
33270;SDS011;53180;51.344;6.152;2022-10-04T14:47:17;2.10;;;0.90;;
33270;SDS011;53180;51.344;6.152;2022-10-04T14:50:22;1.75;;;1.05;;
33270;SDS011;53180;51.344;6.152;2022-10-04T14:53:09;1.73;;;0.90;;
33270;SDS011;53180;51.344;6.152;2022-10-04T14:58:39;1.67;;;0.95;;
33270;SDS011;53180;51.344;6.152;2022-10-04T15:01:22;3.67;;;1.10;;
33270;SDS011;53180;51.344;6.152;2022-10-04T15:04:05;3.45;;;1.08;;
33270;SDS011;53180;51.344;6.152;2022-10-04T15:06:54;0.90;;;0.70;;
33270;SDS011;53180;51.344;6.152;2022-10-04T15:15:40;5.13;;;0.90;;
33270;SDS011;53180;51.344;6.152;2022-10-04T15:18:32;1.50;;;0.85;;
33270;SDS011;53180;51.344;6.152;2022-10-04T15:21:19;3.40;;;0.98;;
33270;SDS011;53180;51.344;6.152;2022-10-04T15:30:19;3.42;;;1.10;;
33270;SDS011;53180;51.344;6.152;2022-10-04T15:33:05;3.75;;;1.05;;
33270;SDS011;53180;51.344;6.152;2022-10-04T15:39:07;1.10;;;0.70;;
33270;SDS011;53180;51.344;6.152;2022-10-04T15:45:55;2.15;;;1.08;;
33270;SDS011;53180;51.344;6.152;2022-10-04T15:48:45;2.08;;;1.10;;
33270;SDS011;53180;51.344;6.152;2022-10-04T15:51:33;1.83;;;1.02;;
33270;SDS011;53180;51.344;6.152;2022-10-04T15:54:38;2.35;;;1.10;;
33270;SDS011;53180;51.344;6.152;2022-10-04T15:57:22;1.75;;;1.00;;
33270;SDS011;53180;51.344;6.152;2022-10-04T16:00:01;2.08;;;0.98;;
33270;SDS011;53180;51.344;6.152;2022-10-04T16:03:03;3.42;;;1.08;;
33270;SDS011;53180;51.344;6.152;2022-10-04T16:05:47;4.90;;;1.25;;
33270;SDS011;53180;51.344;6.152;2022-10-04T16:08:32;2.30;;;0.80;;
33270;SDS011;53180;51.344;6.152;2022-10-04T16:11:30;1.38;;;1.00;;
33270;SDS011;53180;51.344;6.152;2022-10-04T16:14:22;1.10;;;0.80;;
33270;SDS011;53180;51.344;6.152;2022-10-04T16:17:32;3.97;;;1.05;;
33270;SDS011;53180;51.344;6.152;2022-10-04T16:20:16;1.80;;;0.98;;
33270;SDS011;53180;51.344;6.152;2022-10-04T16:23:25;1.90;;;0.90;;
33270;SDS011;53180;51.344;6.152;2022-10-04T16:25:58;3.13;;;1.25;;
33270;SDS011;53180;51.344;6.152;2022-10-04T16:31:38;2.10;;;1.05;;
33270;SDS011;53180;51.344;6.152;2022-10-04T16:34:36;1.58;;;1.02;;
33270;SDS011;53180;51.344;6.152;2022-10-04T16:37:30;1.85;;;1.05;;
33270;SDS011;53180;51.344;6.152;2022-10-04T16:40:15;2.65;;;1.23;;
33270;SDS011;53180;51.344;6.152;2022-10-04T16:42:57;1.95;;;1.20;;
33270;SDS011;53180;51.344;6.152;2022-10-04T16:45:31;2.38;;;1.20;;
33270;SDS011;53180;51.344;6.152;2022-10-04T16:48:24;1.67;;;1.10;;
33270;SDS011;53180;51.344;6.152;2022-10-04T16:51:06;1.45;;;0.98;;
33270;SDS011;53180;51.344;6.152;2022-10-04T16:57:30;3.13;;;1.15;;
33270;SDS011;53180;51.344;6.152;2022-10-04T16:59:59;2.90;;;1.30;;
33270;SDS011;53180;51.344;6.152;2022-10-04T17:03:09;3.03;;;1.85;;
33270;SDS011;53180;51.344;6.152;2022-10-04T17:08:47;3.90;;;2.13;;
33270;SDS011;53180;51.344;6.152;2022-10-04T17:14:42;3.22;;;1.58;;
33270;SDS011;53180;51.344;6.152;2022-10-04T17:17:30;3.13;;;1.52;;
33270;SDS011;53180;51.344;6.152;2022-10-04T17:20:13;1.63;;;1.30;;
33270;SDS011;53180;51.344;6.152;2022-10-04T17:23:06;2.55;;;1.33;;
33270;SDS011;53180;51.344;6.152;2022-10-04T17:25:50;1.33;;;1.00;;
33270;SDS011;53180;51.344;6.152;2022-10-04T17:28:28;5.53;;;0.82;;
33270;SDS011;53180;51.344;6.152;2022-10-04T17:31:12;1.27;;;1.00;;
33270;SDS011;53180;51.344;6.152;2022-10-04T17:33:52;2.10;;;1.40;;
33270;SDS011;53180;51.344;6.152;2022-10-04T17:36:34;2.50;;;1.38;;
33270;SDS011;53180;51.344;6.152;2022-10-04T17:39:17;2.38;;;1.30;;
33270;SDS011;53180;51.344;6.152;2022-10-04T17:42:07;2.00;;;1.20;;
33270;SDS011;53180;51.344;6.152;2022-10-04T17:44:59;3.13;;;1.30;;
33270;SDS011;53180;51.344;6.152;2022-10-04T17:47:57;2.88;;;1.30;;
33270;SDS011;53180;51.344;6.152;2022-10-04T17:50:53;2.53;;;1.40;;
33270;SDS011;53180;51.344;6.152;2022-10-04T17:53:47;2.45;;;1.30;;
33270;SDS011;53180;51.344;6.152;2022-10-04T17:56:39;2.42;;;1.70;;
33270;SDS011;53180;51.344;6.152;2022-10-04T17:59:15;3.42;;;1.55;;
33270;SDS011;53180;51.344;6.152;2022-10-04T18:01:47;3.58;;;1.70;;
33270;SDS011;53180;51.344;6.152;2022-10-04T18:04:22;4.20;;;1.65;;
33270;SDS011;53180;51.344;6.152;2022-10-04T18:06:55;3.85;;;1.60;;
33270;SDS011;53180;51.344;6.152;2022-10-04T18:09:32;2.30;;;1.42;;
33270;SDS011;53180;51.344;6.152;2022-10-04T18:12:09;2.22;;;1.40;;
33270;SDS011;53180;51.344;6.152;2022-10-04T18:14:55;1.98;;;1.50;;
33270;SDS011;53180;51.344;6.152;2022-10-04T18:17:30;2.05;;;1.60;;
33270;SDS011;53180;51.344;6.152;2022-10-04T18:20:19;1.42;;;1.20;;
33270;SDS011;53180;51.344;6.152;2022-10-04T18:22:59;2.45;;;1.60;;
33270;SDS011;53180;51.344;6.152;2022-10-04T18:25:32;2.40;;;1.73;;
33270;SDS011;53180;51.344;6.152;2022-10-04T18:28:01;4.13;;;1.60;;
33270;SDS011;53180;51.344;6.152;2022-10-04T18:33:29;2.70;;;1.83;;
33270;SDS011;53180;51.344;6.152;2022-10-04T18:36:14;2.90;;;1.80;;
33270;SDS011;53180;51.344;6.152;2022-10-04T18:38:59;2.25;;;1.73;;
33270;SDS011;53180;51.344;6.152;2022-10-04T18:41:53;6.20;;;2.30;;
33270;SDS011;53180;51.344;6.152;2022-10-04T18:44:28;4.07;;;2.58;;
33270;SDS011;53180;51.344;6.152;2022-10-04T18:47:14;2.38;;;1.75;;
33270;SDS011;53180;51.344;6.152;2022-10-04T18:49:50;2.78;;;1.98;;
33270;SDS011;53180;51.344;6.152;2022-10-04T18:52:24;2.58;;;1.83;;
33270;SDS011;53180;51.344;6.152;2022-10-04T18:55:12;4.28;;;1.85;;
33270;SDS011;53180;51.344;6.152;2022-10-04T18:57:55;10.40;;;2.33;;
33270;SDS011;53180;51.344;6.152;2022-10-04T19:00:56;2.92;;;2.15;;
33270;SDS011;53180;51.344;6.152;2022-10-04T19:03:51;3.70;;;2.55;;
33270;SDS011;53180;51.344;6.152;2022-10-04T19:06:28;3.53;;;2.35;;